ADDS METAR Data INFO
IDs: Format: Raw Decoded Include TAF

Data at: 0646 UTC 23 Feb 2018

KMTO 230636Z AUTO 14011KT 1 1/2SM -RA BR OVC001 07/07 A3017 RMK AO2 RAB30 P0000 T00670067
KMTO 230553Z AUTO 14011KT 1 1/4SM BR OVC002 07/07 A3020 RMK AO2 RAE34 SLP231 P0000 60000 T00670067 10067 20061 400720011 58035
KMTO 230516Z AUTO 14012KT 3/4SM -RA BR OVC002 07/07 A3022 RMK AO2 PRESFR P0000 T00670067
KMTO 230453Z AUTO 16012KT 1 1/2SM -RA BR OVC002 07/07 A3028 RMK AO2 RAB02 SLP258 P0000 T00670067
KMTO 230431Z AUTO 15009KT 1SM -RA BR VV002 07/06 A3029 RMK AO2 RAB02 P0000 T00670061
KMTO 230353Z AUTO 14007KT 1/2SM FG VV002 06/06 A3030 RMK AO2 SLP264 T00610061
KMTO 230304Z AUTO 13010KT 3/4SM BR OVC002 06/06 A3030 RMK AO2 T00610056
KMTO 230253Z AUTO 14008KT 1SM BR OVC002 06/06 A3031 RMK AO2 SLP268 T00610061 56013
KMTO 230153Z AUTO 09005KT 1 1/2SM BR OVC002 06/06 A3032 RMK AO2 SLP271 T00610061
KMTO 230141Z AUTO 09005KT 1 3/4SM BR OVC003 06/06 A3032 RMK AO2 T00610061
KMTO 230053Z AUTO 10006KT 2 1/2SM BR OVC002 06/06 A3031 RMK AO2 SLP270 T00610056
KMTO 230037Z AUTO 09005KT 2SM BR OVC003 06/06 A3031 RMK AO2 T00610061
KMTO 222353Z AUTO 12004KT 1 1/2SM BR OVC004 06/06 A3035 RMK AO2 SLP281 T00610056 10072 20061 53016
KMTO 222348Z AUTO 12003KT 1 3/4SM BR OVC004 06/06 A3035 RMK AO2
KMTO 222253Z AUTO VRB03KT 5SM BR OVC007 07/06 A3034 RMK AO2 PRESRR SLP277 T00670056
KMTO 222153Z AUTO 12010KT 10SM OVC008 07/06 A3030 RMK AO2 SLP266 T00670056
KMTO 222053Z AUTO 11011KT 10SM OVC009 07/05 A3030 RMK AO2 SLP265 T00670050 56028
KMTO 222031Z AUTO 12010KT 10SM OVC009 07/05 A3031 RMK AO2 T00720050
KMTO 221953Z AUTO 12009KT 10SM OVC010 07/05 A3031 RMK AO2 SLP270 T00720050
KMTO 221853Z AUTO 09007KT 10SM OVC011 07/04 A3036 RMK AO2 SLP284 T00670044
KMTO 221753Z AUTO 08008KT 10SM OVC010 06/04 A3038 RMK AO2 SLP295 60000 T00610044 10061 20022 58004
KMTO 221743Z AUTO 09009KT 7SM OVC010 06/04 A3039 RMK AO2 CIG 007V013 T00610039
KMTO 221653Z AUTO 08009KT 6SM BR OVC008 05/04 A3040 RMK AO2 CIG 006V011 SLP299 T00500039
KMTO 221553Z AUTO 07017KT 10SM OVC007 04/03 A3039 RMK AO2 CIG 006V011 SLP297 T00440033
KMTO 221453Z AUTO 06017KT 9SM OVC008 04/02 A3040 RMK AO2 SLP300 60000 T00390022 53003
KMTO 221353Z AUTO 06016KT 10SM OVC007 03/02 A3039 RMK AO2 RAE24 SLP299 P0000 T00280022
KMTO 221253Z AUTO 06012KT 5SM -RA BR OVC005 03/02 A3038 RMK AO2 RAE01B14E15B49UPB01E14B47E49 CIG 004V008 SLP295 P0000 T00280017
KMTO 221230Z AUTO 04013KT 4SM BR OVC005 02/02 A3038 RMK AO2 RAE01B14E15UPB01E14 P0000 T00220017
KMTO 221212Z AUTO 05015KT 4SM UP BR OVC004 02/02 A3038 RMK AO2 RAE01UPB01 P0000 T00220017
KMTO 221201Z AUTO 04013KT 3SM UP BR OVC005 02/02 A3038 RMK AO2 RAE01UPB01 P0000 T00220017
KMTO 221153Z AUTO 04012KT 2 1/2SM -RA BR OVC005 02/02 A3039 RMK AO2 UPB08E11RAB31SNB11E31 SLP297 P0000 60000 70002 T00220017 10022 20011 50018
KMTO 221146Z AUTO 04014KT 2 1/2SM -RA BR OVC005 02/02 A3039 RMK AO2 UPB08E11RAB31SNB11E31 P0000 T00170017
KMTO 221117Z AUTO 03016KT 1 3/4SM -SN BR OVC006 02/01 A3039 RMK AO2 UPB08E11SNB11 P0000 T00170011
KMTO 221053Z AUTO 01015KT 6SM BR OVC005 02/01 A3039 RMK AO2 UPB31E40RAB40E52 SLP299 P0000 T00170011
KMTO 220953Z AUTO 01013KT 6SM BR OVC005 02/01 A3038 RMK AO2 PRESRR SLP292 T00170011
KMTO 220853Z AUTO 04013KT 5SM BR OVC005 02/01 A3033 RMK AO2 RAE14 SLP278 P0000 60000 T00170011 56028
KMTO 220753Z AUTO 05013KT 6SM -RA BR OVC007 02/01 A3036 RMK AO2 PRESFR SLP287 P0000 T00170011
KMTO 220653Z AUTO 07013KT 7SM -RA BKN009 OVC070 02/01 A3039 RMK AO2 UPB27E35RAB35 SLP296 P0000 T00170006
KMTO 220643Z AUTO 07012KT 7SM -RA BKN009 BKN038 OVC070 02/01 A3039 RMK AO2 UPB27E35RAB35 P0000 T00170006
KMTO 220633Z AUTO 08013KT 8SM UP SCT009 BKN019 OVC070 02/01 A3039 RMK AO2 UPB27 P0000 T00170006
KMTO 220553Z AUTO 07013KT 9SM BKN010 OVC040 01/00 A3042 RMK AO2 SLP307 60000 T00110000 10011 20006 400281006 58028
KMTO 220540Z AUTO 05013KT 9SM BKN009 OVC041 01/00 A3042 RMK AO2 T00110000
KMTO 220527Z AUTO 05011KT 9SM SCT009 OVC041 01/00 A3043 RMK AO2 T00110000
KMTO 220517Z AUTO 05012KT 9SM BKN009 BKN018 OVC043 01/01 A3044 RMK AO2 CIG 007V012 T00110006
KMTO 220453Z AUTO 05013KT 9SM BKN010 OVC018 01/00 A3046 RMK AO2 SLP320 T00110000
KMTO 220417Z AUTO 04011KT 9SM OVC010 01/00 A3049 RMK AO2 T00060000
KMTO 220353Z AUTO 04011KT 10SM OVC008 01/00 A3050 RMK AO2 CIG 006V012 SLP335 T00060000
KMTO 212353Z AUTO 03014KT 10SM BKN014 BKN029 OVC041 01/M01 A3049 RMK AO2 SLP332 T00111006 10017 20011 53003
KMTO 212322Z AUTO 03014KT 7SM BKN013 OVC031 01/M01 A3048 RMK AO2 T00111006
KMTO 212315Z AUTO 03015KT 6SM BR SCT013 OVC031 01/M01 A3048 RMK AO2 T00111006
KMTO 212253Z AUTO 03015KT 6SM BR BKN014 OVC032 01/M01 A3048 RMK AO2 SLP328 T00111006
KMTO 212153Z AUTO 04013KT 8SM OVC014 02/00 A3048 RMK AO2 SLP327 T00170000
KMTO 212053Z AUTO 01014KT 6SM BR OVC011 02/00 A3048 RMK AO2 SLP327 T00170000 51004
KMTO 211953Z AUTO 02016KT 7SM OVC012 02/00 A3046 RMK AO2 SLP320 T00170000
KMTO 211853Z AUTO 02013KT 5SM BR OVC009 01/00 A3049 RMK AO2 SLP331 T00110000